Time;durP1;ratioP1;P1;durP2;ratioP2;P2;SDS_P1;SDS_P2;PMS_P1;PMS_P2;Temp;Humidity;BMP_temperature;BMP_pressure;BME280_temperature;BME280_humidity;BME280_pressure;Samples;Min_cycle;Max_cycle;Signal;HPM_P1;HPM_P2
2021/07/28 00:01:19;;;;;;;3.30;3.10;;;21.20;99.90;;;;;;5068314;28;20206;-83
2021/07/28 00:03:46;;;;;;;3.83;2.92;;;21.20;99.90;;;;;;5065884;28;20188;-83
2021/07/28 00:06:18;;;;;;;3.85;3.45;;;21.10;99.90;;;;;;5055060;28;20226;-82
2021/07/28 00:08:45;;;;;;;3.40;3.10;;;21.10;99.90;;;;;;5052417;28;20195;-82
2021/07/28 00:11:12;;;;;;;3.60;3.30;;;21.10;99.90;;;;;;5055625;28;20219;-83
2021/07/28 00:13:40;;;;;;;2.67;2.47;;;21.10;99.90;;;;;;5055377;28;20192;-83
2021/07/28 00:16:11;;;;;;;4.50;3.63;;;21.10;99.90;;;;;;5055554;28;20200;-82
2021/07/28 00:18:43;;;;;;;3.63;3.33;;;21.10;99.90;;;;;;5055928;28;20195;-82
2021/07/28 00:23:54;;;;;;;3.13;2.92;;;21.00;99.90;;;;;;5055480;28;20289;-82
2021/07/28 00:26:21;;;;;;;3.45;3.15;;;21.00;99.90;;;;;;5047088;28;20227;-82
2021/07/28 00:28:49;;;;;;;3.90;3.60;;;21.00;99.90;;;;;;5057871;28;20235;-82
2021/07/28 00:31:16;;;;;;;4.53;3.88;;;21.00;99.90;;;;;;5055244;28;20195;-83
2021/07/28 00:33:43;;;;;;;3.13;2.83;;;21.00;99.90;;;;;;5055521;28;20206;-82
2021/07/28 00:36:09;;;;;;;3.13;2.83;;;21.00;99.90;;;;;;5060235;28;20188;-82
2021/07/28 00:38:36;;;;;;;3.40;3.10;;;21.00;99.90;;;;;;5055376;28;20666;-82
2021/07/28 00:41:03;;;;;;;3.13;2.90;;;20.90;99.90;;;;;;5056067;28;20206;-83
2021/07/28 00:43:30;;;;;;;3.40;3.10;;;21.00;99.90;;;;;;5055841;28;20234;-83
2021/07/28 00:45:58;;;;;;;4.13;3.72;;;20.90;99.90;;;;;;5068347;28;20206;-82
2021/07/28 00:48:24;;;;;;;4.40;3.22;;;21.00;99.90;;;;;;5076140;28;20199;-82
2021/07/28 00:50:51;;;;;;;3.20;2.90;;;20.90;99.90;;;;;;5067738;28;20206;-82
2021/07/28 00:53:19;;;;;;;4.40;3.42;;;20.90;99.90;;;;;;5075636;28;20198;-82
2021/07/28 00:55:47;;;;;;;3.72;2.90;;;20.90;99.90;;;;;;5067504;28;20217;-83
2021/07/28 00:58:14;;;;;;;3.85;2.63;;;20.90;99.90;;;;;;5075440;28;20220;-82
2021/07/28 01:00:41;;;;;;;2.75;2.50;;;20.90;99.90;;;;;;5075674;28;20543;-83
2021/07/28 01:03:09;;;;;;;3.45;2.88;;;20.90;99.90;;;;;;5075559;28;20225;-82
2021/07/28 01:05:36;;;;;;;4.03;3.70;;;20.90;99.90;;;;;;5074716;28;20202;-81
2021/07/28 01:08:03;;;;;;;3.10;2.78;;;20.80;99.90;;;;;;5069702;28;20222;-81
2021/07/28 01:10:30;;;;;;;3.40;3.10;;;20.80;99.90;;;;;;5074300;28;20195;-81
2021/07/28 01:12:57;;;;;;;3.72;3.33;;;20.80;99.90;;;;;;5065759;28;20274;-81
2021/07/28 01:15:33;;;;;;;4.03;3.65;;;20.70;99.90;;;;;;5055261;28;20703;-81
2021/07/28 01:18:02;;;;;;;4.22;3.75;;;20.70;99.90;;;;;;5042039;28;20224;-82
2021/07/28 01:20:38;;;;;;;3.13;2.88;;;20.80;99.90;;;;;;5071028;28;20225;-82
2021/07/28 01:23:08;;;;;;;3.42;3.13;;;20.70;99.90;;;;;;5038525;28;20188;-81
2021/07/28 01:25:38;;;;;;;3.42;3.00;;;20.60;99.90;;;;;;5038551;28;20214;-82
2021/07/28 01:28:06;;;;;;;3.55;2.90;;;20.60;99.90;;;;;;5051398;28;20586;-82
2021/07/28 01:30:33;;;;;;;3.65;3.35;;;20.60;99.90;;;;;;5068585;28;20200;-81
2021/07/28 01:33:01;;;;;;;3.25;2.95;;;20.60;99.90;;;;;;5058301;28;20200;-82
2021/07/28 01:35:31;;;;;;;4.15;3.13;;;20.60;99.90;;;;;;5058673;28;20184;-81
2021/07/28 01:37:58;;;;;;;3.60;3.30;;;20.60;99.90;;;;;;5076384;28;20199;-82
2021/07/28 01:40:24;;;;;;;2.95;2.75;;;20.60;99.90;;;;;;5079602;28;20207;-81
2021/07/28 01:42:52;;;;;;;3.40;2.70;;;20.50;99.90;;;;;;5078933;28;20206;-81
2021/07/28 01:45:19;;;;;;;3.47;3.17;;;20.60;99.90;;;;;;5060465;28;20195;-81
2021/07/28 01:47:46;;;;;;;3.55;3.25;;;20.50;99.90;;;;;;5059288;28;20215;-82
2021/07/28 01:50:13;;;;;;;3.60;3.30;;;20.50;99.90;;;;;;5058686;28;20358;-82
2021/07/28 01:52:41;;;;;;;2.95;2.72;;;20.50;99.90;;;;;;5060575;28;20191;-82
2021/07/28 01:55:09;;;;;;;3.30;3.00;;;20.50;99.90;;;;;;5058742;28;20656;-82
2021/07/28 01:57:36;;;;;;;2.75;2.53;;;20.50;99.90;;;;;;5059448;28;20192;-82
2021/07/28 02:00:07;;;;;;;3.25;2.95;;;20.50;99.90;;;;;;5068158;28;20203;-82
2021/07/28 02:02:35;;;;;;;3.58;3.28;;;20.40;99.90;;;;;;5058732;28;20647;-82
2021/07/28 02:05:03;;;;;;;3.30;3.00;;;20.40;99.90;;;;;;5058266;28;20200;-82
2021/07/28 02:07:29;;;;;;;3.35;2.75;;;20.40;99.90;;;;;;5058541;28;20599;-82
2021/07/28 02:09:56;;;;;;;3.05;2.85;;;20.40;99.90;;;;;;5058352;28;20196;-82
2021/07/28 02:12:24;;;;;;;3.65;3.35;;;20.40;99.90;;;;;;5065993;28;20816;-82
2021/07/28 02:14:51;;;;;;;3.45;3.15;;;20.40;99.90;;;;;;5077504;28;20203;-80
2021/07/28 02:17:19;;;;;;;3.33;3.00;;;20.40;99.90;;;;;;5067416;28;20562;-81
2021/07/28 02:19:46;;;;;;;3.03;2.75;;;20.50;99.90;;;;;;5072972;28;20202;-82
2021/07/28 02:22:12;;;;;;;4.40;3.65;;;20.40;99.90;;;;;;5058109;28;20200;-81
2021/07/28 02:24:40;;;;;;;3.60;3.30;;;20.40;99.90;;;;;;5057183;28;20533;-81
2021/07/28 02:27:08;;;;;;;3.67;3.38;;;20.40;99.90;;;;;;5058396;28;20219;-83
2021/07/28 02:29:35;;;;;;;3.08;2.72;;;20.40;99.90;;;;;;5057358;28;20598;-83
2021/07/28 02:32:02;;;;;;;4.10;3.28;;;20.40;99.90;;;;;;5074390;28;20191;-83
2021/07/28 02:34:31;;;;;;;3.40;3.00;;;20.30;99.90;;;;;;5078029;28;20237;-83
2021/07/28 02:36:58;;;;;;;3.25;2.95;;;20.40;99.90;;;;;;5059141;28;20199;-82
2021/07/28 02:39:25;;;;;;;3.40;2.97;;;20.30;99.90;;;;;;5058719;28;20195;-83
2021/07/28 02:41:52;;;;;;;3.33;2.88;;;20.30;99.90;;;;;;5058553;28;20210;-83
2021/07/28 02:44:18;;;;;;;4.05;3.40;;;20.30;99.90;;;;;;5058654;28;20644;-83
2021/07/28 02:46:45;;;;;;;3.22;2.92;;;20.40;99.90;;;;;;5057911;28;20219;-82
2021/07/28 02:49:12;;;;;;;6.35;2.90;;;20.40;99.90;;;;;;5068833;28;20217;-82
2021/07/28 02:51:40;;;;;;;3.22;2.92;;;20.40;99.90;;;;;;5078214;28;20206;-81
2021/07/28 02:54:08;;;;;;;3.53;3.22;;;20.40;99.90;;;;;;5078736;28;20195;-81
2021/07/28 02:56:34;;;;;;;3.50;3.20;;;20.30;99.90;;;;;;5078181;28;20203;-82
2021/07/28 02:59:01;;;;;;;3.28;2.97;;;20.30;99.90;;;;;;5062500;28;20199;-82
2021/07/28 03:01:28;;;;;;;2.95;2.75;;;20.20;99.90;;;;;;5058948;28;20203;-80
2021/07/28 03:03:54;;;;;;;3.45;3.15;;;20.30;99.90;;;;;;5055774;28;20188;-80
2021/07/28 03:06:21;;;;;;;3.95;3.60;;;20.30;99.90;;;;;;5056107;28;20219;-81
2021/07/28 03:08:49;;;;;;;4.60;3.13;;;20.30;99.90;;;;;;5055964;28;20702;-81
2021/07/28 03:11:16;;;;;;;3.78;3.40;;;20.30;99.90;;;;;;5055703;28;20199;-81
2021/07/28 03:13:42;;;;;;;4.38;3.53;;;20.30;99.90;;;;;;5056037;28;20199;-81
2021/07/28 03:16:09;;;;;;;3.45;3.15;;;20.30;99.90;;;;;;5055944;28;20282;-81
2021/07/28 03:18:36;;;;;;;4.00;3.30;;;20.30;99.90;;;;;;5055669;28;20200;-80
2021/07/28 03:21:03;;;;;;;3.40;3.10;;;20.30;99.90;;;;;;5055860;28;20207;-81
2021/07/28 03:23:30;;;;;;;4.45;3.65;;;20.30;99.90;;;;;;5060080;28;20195;-81
2021/07/28 03:25:58;;;;;;;3.35;3.05;;;20.20;99.90;;;;;;5075566;28;20206;-81
2021/07/28 03:28:24;;;;;;;2.95;2.75;;;20.20;99.90;;;;;;5073942;28;20234;-81
2021/07/28 03:30:51;;;;;;;2.83;2.63;;;20.30;99.90;;;;;;5060292;28;20191;-81
2021/07/28 03:33:19;;;;;;;4.10;3.80;;;20.30;99.90;;;;;;5055188;28;20199;-81
2021/07/28 03:35:46;;;;;;;3.50;3.20;;;20.30;99.90;;;;;;5071304;28;20195;-81
2021/07/28 03:38:13;;;;;;;3.55;3.25;;;20.30;99.90;;;;;;5073887;28;20195;-82
2021/07/28 03:40:40;;;;;;;3.92;3.63;;;20.20;99.90;;;;;;5055379;28;20202;-81
2021/07/28 03:43:08;;;;;;;3.75;3.45;;;20.20;99.90;;;;;;5059820;28;20186;-81
2021/07/28 03:45:35;;;;;;;3.20;2.90;;;20.20;99.90;;;;;;5075462;28;20639;-82
2021/07/28 03:48:02;;;;;;;4.43;3.55;;;20.20;99.90;;;;;;5074971;28;20211;-82
2021/07/28 03:50:29;;;;;;;3.38;3.08;;;20.20;99.90;;;;;;5075154;28;20210;-82
2021/07/28 03:52:57;;;;;;;3.85;3.45;;;20.20;99.90;;;;;;5053922;28;20199;-82
2021/07/28 03:55:25;;;;;;;3.70;3.40;;;20.20;99.90;;;;;;5058986;28;20812;-82
2021/07/28 03:57:51;;;;;;;3.78;3.42;;;20.20;99.90;;;;;;5055322;28;20199;-81
2021/07/28 04:00:20;;;;;;;6.13;3.00;;;20.20;99.90;;;;;;5055251;28;20203;-82
2021/07/28 04:02:47;;;;;;;3.67;3.20;;;20.10;99.90;;;;;;5055306;28;20200;-81
2021/07/28 04:05:14;;;;;;;3.30;3.00;;;20.10;99.90;;;;;;5054708;28;20222;-81
2021/07/28 04:07:41;;;;;;;3.28;2.97;;;20.10;99.90;;;;;;5054180;28;20215;-81
2021/07/28 04:10:09;;;;;;;4.03;3.20;;;20.10;99.90;;;;;;5053831;28;20900;-80
2021/07/28 04:12:37;;;;;;;3.78;3.47;;;20.10;99.90;;;;;;5054547;28;20595;-81
2021/07/28 04:15:04;;;;;;;4.00;3.60;;;20.10;99.90;;;;;;5065605;28;20555;-81
2021/07/28 04:17:32;;;;;;;3.83;3.13;;;20.10;99.90;;;;;;5059849;28;20206;-81
2021/07/28 04:20:00;;;;;;;3.92;3.60;;;20.10;99.90;;;;;;5053617;28;20266;-81
2021/07/28 04:22:27;;;;;;;4.18;3.78;;;20.10;99.90;;;;;;5053753;28;20198;-81
2021/07/28 04:24:55;;;;;;;3.97;3.67;;;20.10;99.90;;;;;;5054756;28;20599;-81
2021/07/28 04:27:21;;;;;;;3.60;3.30;;;20.20;99.90;;;;;;5055840;28;20227;-80
2021/07/28 04:29:51;;;;;;;4.57;4.13;;;20.10;99.90;;;;;;5053690;28;20198;-81
2021/07/28 04:32:17;;;;;;;3.60;3.30;;;20.10;99.90;;;;;;5053237;28;20227;-81
2021/07/28 04:34:45;;;;;;;3.50;3.20;;;20.10;99.90;;;;;;5054206;28;20355;-81
2021/07/28 04:37:12;;;;;;;3.80;3.50;;;20.10;99.90;;;;;;5062327;28;20191;-81
2021/07/28 04:39:39;;;;;;;3.88;3.60;;;20.10;99.90;;;;;;5053932;28;20204;-81
2021/07/28 04:42:06;;;;;;;4.97;4.57;;;20.10;99.90;;;;;;5054628;28;20206;-80
2021/07/28 04:44:32;;;;;;;4.47;3.30;;;20.10;99.90;;;;;;5054350;28;20210;-80
2021/07/28 04:46:59;;;;;;;3.92;3.63;;;20.10;99.90;;;;;;5054304;28;20648;-80
2021/07/28 04:49:26;;;;;;;4.05;3.75;;;20.10;99.90;;;;;;5054520;28;20207;-82
2021/07/28 04:51:54;;;;;;;4.38;3.65;;;20.10;99.90;;;;;;5057049;28;20194;-82
2021/07/28 04:54:21;;;;;;;3.47;3.17;;;20.20;99.90;;;;;;5073954;28;20198;-81
2021/07/28 04:56:48;;;;;;;3.20;2.90;;;20.10;99.90;;;;;;5067004;28;20194;-80
2021/07/28 04:59:14;;;;;;;4.68;3.40;;;20.10;99.90;;;;;;5056546;28;20195;-82
2021/07/28 05:01:41;;;;;;;3.65;3.35;;;20.10;99.90;;;;;;5053764;28;20191;-81
2021/07/28 05:04:09;;;;;;;3.60;3.30;;;20.10;99.90;;;;;;5054328;28;20203;-82
2021/07/28 05:06:36;;;;;;;4.43;4.03;;;20.10;99.90;;;;;;5054264;28;20694;-82
2021/07/28 05:09:04;;;;;;;4.03;3.67;;;20.10;99.90;;;;;;5059666;28;20257;-81
2021/07/28 05:11:31;;;;;;;4.28;3.80;;;20.10;99.90;;;;;;5072179;28;20203;-81
2021/07/28 05:13:57;;;;;;;5.10;4.60;;;20.10;99.90;;;;;;5053828;28;20210;-81
2021/07/28 05:16:24;;;;;;;3.88;3.60;;;20.10;99.90;;;;;;5056588;28;20196;-80
2021/07/28 05:18:51;;;;;;;4.40;3.55;;;20.10;99.90;;;;;;5053854;28;20203;-81
2021/07/28 05:21:17;;;;;;;4.95;4.45;;;20.10;99.90;;;;;;5054334;28;20202;-81
2021/07/28 05:23:44;;;;;;;4.88;4.47;;;20.10;99.90;;;;;;5054307;28;20206;-81
2021/07/28 05:26:13;;;;;;;4.57;4.15;;;20.10;99.90;;;;;;5053764;28;20199;-81
2021/07/28 05:28:39;;;;;;;5.20;4.00;;;20.10;99.90;;;;;;5053284;28;20219;-81
2021/07/28 05:31:06;;;;;;;3.95;3.65;;;20.10;99.90;;;;;;5053925;28;20571;-80
2021/07/28 05:33:33;;;;;;;4.43;4.03;;;20.10;99.90;;;;;;5055428;28;20199;-81
2021/07/28 05:35:59;;;;;;;3.72;3.42;;;20.10;99.90;;;;;;5073864;28;20195;-81
2021/07/28 05:38:26;;;;;;;7.22;4.20;;;20.20;99.90;;;;;;5065326;28;20196;-81
2021/07/28 05:40:55;;;;;;;3.92;3.63;;;20.20;99.90;;;;;;5053943;28;20245;-81
2021/07/28 05:43:23;;;;;;;4.25;3.83;;;20.20;99.90;;;;;;5053279;28;20218;-81
2021/07/28 05:45:51;;;;;;;5.43;3.85;;;20.20;99.90;;;;;;5055201;28;20615;-81
2021/07/28 05:48:18;;;;;;;3.95;3.65;;;20.30;99.90;;;;;;5061939;28;20243;-79
2021/07/28 05:50:44;;;;;;;3.30;2.88;;;20.30;99.90;;;;;;5053729;28;20592;-81
2021/07/28 05:53:11;;;;;;;3.92;3.40;;;20.20;99.90;;;;;;5051301;28;20529;-81
2021/07/28 05:55:38;;;;;;;4.43;4.03;;;20.30;99.90;;;;;;5054725;28;20622;-81
2021/07/28 05:58:04;;;;;;;3.90;3.58;;;20.40;99.90;;;;;;5074024;28;20532;-81
2021/07/28 06:00:32;;;;;;;3.95;3.20;;;20.30;99.90;;;;;;5060790;28;20198;-82
2021/07/28 06:02:59;;;;;;;3.47;3.20;;;20.40;99.90;;;;;;5053426;28;20204;-80
2021/07/28 06:05:26;;;;;;;4.22;3.90;;;20.50;99.90;;;;;;5054414;28;20563;-81
2021/07/28 06:07:52;;;;;;;3.70;3.30;;;20.50;99.90;;;;;;5056072;28;20540;-82
2021/07/28 06:10:19;;;;;;;5.03;4.53;;;20.50;99.90;;;;;;5056344;28;20192;-81
2021/07/28 06:12:46;;;;;;;3.78;3.47;;;20.50;99.90;;;;;;5056657;28;20582;-82
2021/07/28 06:15:13;;;;;;;3.45;3.15;;;20.50;99.90;;;;;;5057156;28;20273;-81
2021/07/28 06:17:41;;;;;;;3.15;2.92;;;20.50;99.90;;;;;;5061701;28;20535;-81
2021/07/28 06:20:09;;;;;;;4.03;3.72;;;20.60;99.90;;;;;;5076355;28;20210;-80
2021/07/28 06:22:36;;;;;;;3.20;2.90;;;20.70;99.90;;;;;;5062071;28;20191;-82
2021/07/28 06:25:02;;;;;;;4.35;3.95;;;20.80;99.90;;;;;;5056063;28;20203;-81
2021/07/28 06:27:29;;;;;;;3.75;3.35;;;20.90;99.90;;;;;;5055702;28;20233;-80
2021/07/28 06:29:56;;;;;;;4.28;3.97;;;20.90;99.90;;;;;;5055621;28;20215;-82
2021/07/28 06:32:23;;;;;;;3.53;3.22;;;21.10;99.90;;;;;;5056290;28;20203;-81
2021/07/28 06:34:51;;;;;;;3.60;3.30;;;21.30;99.90;;;;;;5070597;28;20194;-81
2021/07/28 06:37:18;;;;;;;2.97;2.78;;;21.50;99.90;;;;;;5076129;28;20191;-81
2021/07/28 06:39:45;;;;;;;2.65;2.33;;;21.70;99.90;;;;;;5057522;28;20200;-81
2021/07/28 06:42:11;;;;;;;3.47;3.17;;;22.00;99.90;;;;;;5055295;28;20274;-81
2021/07/28 06:44:38;;;;;;;4.32;3.92;;;22.10;99.90;;;;;;5056474;28;20191;-81
2021/07/28 06:47:05;;;;;;;4.13;3.30;;;22.30;99.90;;;;;;5069968;28;20210;-79
2021/07/28 06:49:32;;;;;;;3.40;2.90;;;22.50;99.90;;;;;;5057360;28;20474;-82
2021/07/28 06:52:00;;;;;;;3.27;2.70;;;22.60;99.90;;;;;;5057801;28;20454;-82
2021/07/28 06:54:26;;;;;;;3.47;3.17;;;22.70;99.90;;;;;;5056359;28;20444;-82
2021/07/28 06:56:53;;;;;;;3.40;2.90;;;22.90;99.90;;;;;;5067708;28;20813;-81
2021/07/28 06:59:20;;;;;;;3.60;3.30;;;22.90;99.90;;;;;;5070640;28;20446;-81
2021/07/28 07:01:47;;;;;;;3.53;3.10;;;22.90;99.90;;;;;;5073311;28;20445;-81
2021/07/28 07:04:13;;;;;;;4.30;3.67;;;22.70;99.90;;;;;;5076543;28;20451;-79
2021/07/28 07:06:40;;;;;;;3.70;3.40;;;22.50;99.90;;;;;;5069053;28;20525;-78
2021/07/28 07:09:08;;;;;;;3.40;3.10;;;22.40;99.90;;;;;;5060534;28;20473;-78
2021/07/28 07:11:35;;;;;;;3.50;3.20;;;22.20;99.90;;;;;;5054710;28;21169;-78
2021/07/28 07:14:02;;;;;;;3.65;3.35;;;22.10;99.90;;;;;;5054771;28;20438;-79
2021/07/28 07:16:28;;;;;;;3.30;3.00;;;22.10;99.90;;;;;;5055046;28;20575;-79
2021/07/28 07:18:55;;;;;;;3.95;3.65;;;22.00;99.90;;;;;;5060464;28;20460;-78
2021/07/28 07:21:22;;;;;;;4.28;3.75;;;21.90;99.90;;;;;;5055928;28;20204;-79
2021/07/28 07:23:49;;;;;;;3.97;3.38;;;21.80;99.90;;;;;;5055741;28;20199;-81
2021/07/28 07:26:17;;;;;;;3.55;3.25;;;21.90;99.90;;;;;;5055942;28;20211;-80
2021/07/28 07:28:44;;;;;;;4.60;3.03;;;22.00;99.90;;;;;;5062292;28;20227;-78
2021/07/28 07:31:11;;;;;;;3.33;3.03;;;22.20;99.90;;;;;;5054280;28;20779;-78
2021/07/28 07:33:39;;;;;;;4.27;3.87;;;22.40;99.90;;;;;;5054732;28;20450;-78
2021/07/28 07:36:06;;;;;;;3.63;3.33;;;22.50;99.90;;;;;;5053441;28;20457;-77
2021/07/28 07:38:33;;;;;;;3.73;3.23;;;22.50;99.90;;;;;;5052965;28;20434;-77
2021/07/28 07:41:00;;;;;;;4.27;3.87;;;22.50;99.90;;;;;;5052919;28;20450;-77
2021/07/28 07:43:28;;;;;;;4.20;3.80;;;22.50;99.90;;;;;;5053734;28;20438;-77
2021/07/28 07:45:55;;;;;;;5.03;2.93;;;22.40;99.90;;;;;;5064270;28;20456;-77
2021/07/28 07:48:23;;;;;;;4.50;4.10;;;22.40;99.90;;;;;;5060330;28;20480;-77
2021/07/28 07:50:50;;;;;;;4.47;3.60;;;22.20;99.90;;;;;;5052801;28;20453;-77
2021/07/28 07:53:17;;;;;;;4.20;3.90;;;22.10;99.90;;;;;;5062517;28;20448;-77
2021/07/28 07:55:44;;;;;;;3.83;3.53;;;22.10;99.90;;;;;;5072667;28;20512;-77
2021/07/28 07:58:11;;;;;;;5.47;4.25;;;22.00;99.90;;;;;;5058182;28;20206;-77
2021/07/28 08:00:39;;;;;;;2.67;2.47;;;21.90;99.90;;;;;;5052755;28;20199;-77
2021/07/28 08:03:06;;;;;;;3.33;3.10;;;21.80;99.90;;;;;;5057348;28;20558;-77
2021/07/28 08:05:33;;;;;;;4.45;4.05;;;21.80;99.90;;;;;;5073701;28;20440;-78
2021/07/28 08:08:00;;;;;;;3.67;3.35;;;21.80;99.90;;;;;;5059496;28;20278;-77
2021/07/28 08:10:27;;;;;;;3.30;3.00;;;21.80;99.90;;;;;;5053323;28;20525;-77
2021/07/28 08:12:54;;;;;;;4.07;3.72;;;21.70;99.90;;;;;;5058361;28;20683;-78
2021/07/28 08:15:20;;;;;;;5.10;3.70;;;21.70;99.90;;;;;;5054237;28;20211;-78
2021/07/28 08:17:48;;;;;;;4.30;3.83;;;21.60;99.90;;;;;;5054058;28;20627;-78
2021/07/28 08:20:16;;;;;;;4.13;3.83;;;21.60;99.90;;;;;;5064036;28;20202;-77
2021/07/28 08:22:43;;;;;;;4.20;3.80;;;21.60;99.90;;;;;;5070512;28;20203;-77
2021/07/28 08:25:10;;;;;;;4.07;3.78;;;21.50;99.90;;;;;;5054290;28;20540;-77
2021/07/28 08:27:38;;;;;;;3.80;3.50;;;21.50;99.90;;;;;;5054944;28;20575;-77
2021/07/28 08:30:05;;;;;;;4.25;3.75;;;21.60;99.90;;;;;;5052692;28;20223;-78
2021/07/28 08:32:32;;;;;;;7.38;3.40;;;21.60;99.90;;;;;;5061074;28;20199;-77
2021/07/28 08:35:00;;;;;;;3.83;3.15;;;21.80;99.90;;;;;;5053423;28;20196;-77
2021/07/28 08:37:27;;;;;;;3.88;3.58;;;21.80;99.90;;;;;;5062545;28;20210;-78
2021/07/28 08:39:54;;;;;;;4.15;3.72;;;21.90;99.90;;;;;;5066110;28;20653;-77
2021/07/28 08:42:21;;;;;;;4.30;3.92;;;22.00;99.90;;;;;;5056452;28;20199;-78
2021/07/28 08:44:48;;;;;;;3.63;3.33;;;22.10;99.90;;;;;;5052880;28;20872;-77
2021/07/28 08:47:19;;;;;;;3.67;2.83;;;22.20;99.90;;;;;;5052748;28;20199;-78
2021/07/28 08:49:46;;;;;;;3.35;3.05;;;22.40;99.90;;;;;;5060175;28;20474;-77
2021/07/28 08:52:14;;;;;;;4.20;3.80;;;22.50;99.90;;;;;;5057675;28;20736;-77
2021/07/28 08:54:41;;;;;;;4.77;4.00;;;22.40;99.90;;;;;;5052421;28;20445;-77
2021/07/28 08:57:11;;;;;;;4.23;3.00;;;22.40;99.90;;;;;;5052612;28;20450;-78
2021/07/28 08:59:38;;;;;;;3.03;2.75;;;22.30;99.90;;;;;;5052269;28;20453;-78
2021/07/28 09:02:05;;;;;;;2.90;2.67;;;22.20;99.90;;;;;;5053126;28;20536;-78
2021/07/28 09:04:32;;;;;;;3.60;3.30;;;22.10;99.90;;;;;;5053183;28;20545;-79
2021/07/28 09:06:59;;;;;;;3.60;3.30;;;22.10;99.90;;;;;;5056788;28;20190;-77
2021/07/28 09:09:29;;;;;;;8.00;4.13;;;22.10;99.90;;;;;;5051712;28;22370;-77
2021/07/28 09:11:56;;;;;;;3.27;2.97;;;22.00;99.90;;;;;;5064271;28;20214;-77
2021/07/28 09:14:25;;;;;;;4.63;3.40;;;22.00;99.90;;;;;;5053964;28;20450;-77
2021/07/28 09:16:53;;;;;;;4.80;4.40;;;21.90;99.90;;;;;;5061706;28;21032;-77
2021/07/28 09:19:41;;;;;;;3.60;3.30;;;21.90;99.90;;;;;;5044782;28;20187;-77
2021/07/28 09:22:09;;;;;;;4.03;3.63;;;21.80;99.90;;;;;;5053493;28;20223;-77
2021/07/28 09:24:38;;;;;;;3.83;3.53;;;21.80;99.90;;;;;;5053244;28;20199;-77
2021/07/28 09:27:05;;;;;;;3.33;3.05;;;21.70;99.90;;;;;;5054084;28;20207;-77
2021/07/28 09:29:38;;;;;;;4.10;3.25;;;21.70;99.90;;;;;;5053233;28;20200;-77
2021/07/28 09:32:07;;;;;;;4.03;3.72;;;21.70;99.90;;;;;;5038669;28;20219;-78
2021/07/28 09:34:36;;;;;;;4.32;3.92;;;21.80;99.90;;;;;;5049793;28;20202;-77
2021/07/28 09:37:10;;;;;;;5.38;3.72;;;21.80;99.90;;;;;;5050761;28;20203;-77
2021/07/28 09:39:40;;;;;;;3.42;3.22;;;21.70;99.90;;;;;;5052235;28;20618;-77
2021/07/28 09:42:12;;;;;;;3.80;3.35;;;21.70;99.90;;;;;;5061736;28;20190;-77
2021/07/28 09:44:40;;;;;;;3.83;3.53;;;21.70;99.90;;;;;;5059558;28;20196;-77
2021/07/28 09:47:10;;;;;;;5.43;4.40;;;21.70;99.90;;;;;;5057188;28;20203;-77
2021/07/28 09:49:37;;;;;;;5.63;3.90;;;21.70;99.90;;;;;;5057036;28;20227;-78
2021/07/28 09:52:21;;;;;;;4.93;4.40;;;21.70;99.90;;;;;;5056384;28;21427;-78
2021/07/28 09:54:51;;;;;;;3.40;3.10;;;21.70;99.90;;;;;;5056790;28;20445;-77
2021/07/28 09:57:22;;;;;;;5.20;3.83;;;21.70;99.90;;;;;;5056840;28;20200;-77
2021/07/28 10:00:03;;;;;;;3.80;3.50;;;21.70;99.90;;;;;;5057251;28;20192;-77
2021/07/28 10:02:33;;;;;;;4.63;4.22;;;21.80;99.90;;;;;;5057768;28;20215;-77
2021/07/28 10:05:01;;;;;;;3.13;2.83;;;21.90;99.90;;;;;;5056252;28;20198;-77
2021/07/28 10:07:31;;;;;;;4.25;3.85;;;21.90;99.90;;;;;;5055818;28;20206;-77
2021/07/28 10:10:04;;;;;;;3.90;3.40;;;22.10;99.90;;;;;;5054667;28;20265;-77
2021/07/28 10:12:34;;;;;;;3.95;3.63;;;22.20;99.90;;;;;;5047721;28;20183;-77
2021/07/28 10:15:01;;;;;;;4.05;3.75;;;22.20;99.90;;;;;;5064950;28;20196;-77
2021/07/28 10:17:29;;;;;;;3.43;3.13;;;22.30;99.90;;;;;;5055209;28;20318;-77
2021/07/28 10:19:56;;;;;;;4.00;3.53;;;22.30;99.90;;;;;;5062098;28;20450;-81
2021/07/28 10:22:23;;;;;;;3.75;3.00;;;22.30;99.90;;;;;;5062812;28;20461;-78
2021/07/28 10:24:50;;;;;;;2.83;2.60;;;22.30;99.90;;;;;;5067192;28;20191;-77
2021/07/28 10:27:19;;;;;;;3.40;3.10;;;22.30;99.90;;;;;;5055685;28;20466;-77
2021/07/28 10:29:49;;;;;;;4.73;3.97;;;22.30;99.90;;;;;;5052086;28;20466;-78
2021/07/28 10:32:29;;;;;;;3.33;3.03;;;22.40;99.90;;;;;;5063640;28;20437;-77
2021/07/28 10:35:21;;;;;;;3.87;3.20;;;22.40;99.90;;;;;;5075694;28;20941;-77
2021/07/28 10:37:49;;;;;;;3.55;3.25;;;22.40;99.90;;;;;;5064691;28;20457;-78
2021/07/28 10:40:50;;;;;;;4.10;3.27;;;22.50;99.90;;;;;;5055919;28;20694;-78
2021/07/28 10:43:18;;;;;;;3.10;2.90;;;22.50;99.90;;;;;;5048828;28;21008;-77
2021/07/28 10:45:59;;;;;;;6.00;3.50;;;22.60;99.90;;;;;;5060840;28;20952;-77
2021/07/28 10:48:59;;;;;;;4.43;3.90;;;22.60;99.90;;;;;;5053569;28;20448;-77
2021/07/28 10:51:55;;;;;;;5.80;3.67;;;22.60;99.90;;;;;;5054733;28;20975;-78
2021/07/28 10:54:59;;;;;;;4.00;3.60;;;22.60;99.90;;;;;;5065230;28;20481;-78
2021/07/28 10:58:06;;;;;;;3.23;3.00;;;22.60;99.90;;;;;;5061649;28;20444;-77
2021/07/28 11:00:54;;;;;;;6.13;3.93;;;22.50;99.90;;;;;;5052528;28;20438;-77
2021/07/28 11:03:29;;;;;;;4.03;3.63;;;22.40;99.90;;;;;;5055802;28;20474;-78
2021/07/28 11:06:23;;;;;;;4.40;3.17;;;22.40;99.90;;;;;;5069331;28;20447;-79
2021/07/28 11:08:51;;;;;;;5.40;3.43;;;22.40;99.90;;;;;;5067364;28;20541;-77
2021/07/28 11:11:23;;;;;;;3.80;3.43;;;22.50;99.90;;;;;;5055133;28;20484;-77
2021/07/28 11:13:50;;;;;;;3.83;3.53;;;22.50;99.90;;;;;;5072669;28;20453;-77
2021/07/28 11:16:23;;;;;;;3.60;3.30;;;22.50;99.90;;;;;;5074726;28;20514;-81
2021/07/28 11:18:51;;;;;;;3.53;3.30;;;22.50;99.90;;;;;;5071306;28;20507;-78
2021/07/28 11:21:19;;;;;;;3.97;3.55;;;22.50;99.90;;;;;;5057139;28;20449;-78
2021/07/28 11:23:49;;;;;;;6.50;3.60;;;22.50;99.90;;;;;;5066971;28;20202;-77
2021/07/28 11:26:27;;;;;;;3.17;2.83;;;22.40;99.90;;;;;;5068979;28;20226;-77
2021/07/28 11:28:57;;;;;;;4.07;3.67;;;22.40;99.90;;;;;;5054641;28;20808;-77
2021/07/28 11:31:27;;;;;;;4.10;3.33;;;22.40;99.90;;;;;;5060459;28;20506;-77
2021/07/28 11:34:03;;;;;;;4.60;3.43;;;22.40;99.90;;;;;;5060273;28;20909;-77
2021/07/28 11:36:32;;;;;;;4.50;2.87;;;22.40;99.90;;;;;;5072488;28;20437;-76
2021/07/28 11:38:58;;;;;;;3.63;3.10;;;22.40;99.90;;;;;;5064354;28;20460;-77
2021/07/28 11:41:25;;;;;;;2.80;2.60;;;22.40;99.90;;;;;;5053057;28;20192;-77
2021/07/28 11:43:57;;;;;;;2.80;2.60;;;22.40;99.90;;;;;;5067298;28;20441;-77
2021/07/28 11:46:25;;;;;;;3.70;3.40;;;22.40;99.90;;;;;;5063719;28;20918;-77
2021/07/28 11:48:56;;;;;;;4.80;2.83;;;22.50;99.90;;;;;;5053303;28;20945;-77
2021/07/28 11:51:25;;;;;;;4.10;3.70;;;22.50;99.90;;;;;;5047515;28;20469;-77
2021/07/28 11:53:53;;;;;;;2.93;2.37;;;22.40;99.90;;;;;;5062841;28;20487;-77
2021/07/28 11:56:19;;;;;;;3.90;3.60;;;22.40;99.90;;;;;;5069724;28;20490;-78
2021/07/28 11:58:48;;;;;;;2.90;2.70;;;22.40;99.90;;;;;;5049690;28;20441;-77
2021/07/28 12:01:19;;;;;;;3.00;2.80;;;22.40;99.90;;;;;;5049728;28;20207;-77
2021/07/28 12:03:52;;;;;;;3.73;3.03;;;22.40;99.90;;;;;;5049747;28;20442;-77
2021/07/28 12:06:34;;;;;;;2.87;2.67;;;22.40;99.90;;;;;;5046310;28;20461;-77
2021/07/28 12:09:17;;;;;;;2.90;2.70;;;22.30;99.90;;;;;;5048262;28;20454;-77
2021/07/28 12:11:46;;;;;;;2.80;2.50;;;22.40;99.90;;;;;;5059382;28;20477;-77
2021/07/28 12:14:23;;;;;;;2.83;2.63;;;22.40;99.90;;;;;;5051477;28;20454;-77
2021/07/28 12:16:50;;;;;;;3.23;2.93;;;22.40;99.90;;;;;;5052302;28;20442;-77
2021/07/28 12:19:25;;;;;;;3.33;3.03;;;22.40;99.90;;;;;;5050656;28;20465;-77
2021/07/28 12:21:57;;;;;;;2.65;2.45;;;22.50;99.90;;;;;;5051598;28;20188;-77
2021/07/28 12:24:41;;;;;;;3.33;3.03;;;22.40;99.90;;;;;;5052013;28;20651;-77
2021/07/28 12:27:59;;;;;;;5.37;2.63;;;22.40;99.90;;;;;;5064003;28;20191;-77
2021/07/28 12:30:27;;;;;;;4.30;3.23;;;22.40;99.90;;;;;;5050754;28;20477;-76
2021/07/28 12:33:09;;;;;;;3.20;2.80;;;22.40;99.90;;;;;;5050997;28;20970;-77
2021/07/28 12:35:49;;;;;;;4.33;3.13;;;22.40;99.90;;;;;;5051889;28;20441;-77
2021/07/28 12:38:19;;;;;;;2.80;2.60;;;22.40;99.90;;;;;;5057829;28;20465;-77
2021/07/28 12:40:49;;;;;;;3.20;2.50;;;22.50;99.90;;;;;;5058522;28;20516;-76
2021/07/28 12:43:16;;;;;;;2.57;2.37;;;22.50;99.90;;;;;;5052781;28;20446;-77
2021/07/28 12:45:43;;;;;;;2.87;2.57;;;22.50;99.90;;;;;;5054424;28;20435;-76
2021/07/28 12:48:11;;;;;;;2.27;2.07;;;22.50;99.90;;;;;;5050661;28;20449;-77
2021/07/28 12:50:42;;;;;;;2.90;2.50;;;22.50;99.90;;;;;;5056525;28;20495;-77
2021/07/28 12:53:09;;;;;;;2.93;2.50;;;22.50;99.90;;;;;;5051788;28;20442;-77
2021/07/28 12:55:37;;;;;;;2.90;2.60;;;22.50;99.90;;;;;;5052688;28;20450;-77
2021/07/28 12:58:04;;;;;;;2.50;2.30;;;22.60;99.90;;;;;;5052456;28;20450;-77
2021/07/28 13:00:30;;;;;;;2.80;2.60;;;22.60;99.90;;;;;;5051244;28;20441;-78